sensor_id;sensor_type;location;lat;lon;timestamp;P1;durP1;ratioP1;P2;durP2;ratioP2
19161;SDS011;9713;48.140;11.530;2022-09-23T00:00:11;8.37;;;5.27;;
19161;SDS011;9713;48.140;11.530;2022-09-23T00:03:56;8.07;;;5.20;;
19161;SDS011;9713;48.140;11.530;2022-09-23T00:07:40;6.70;;;5.07;;
19161;SDS011;9713;48.140;11.530;2022-09-23T00:11:24;6.70;;;4.97;;
19161;SDS011;9713;48.140;11.530;2022-09-23T00:15:08;7.00;;;5.20;;
19161;SDS011;9713;48.140;11.530;2022-09-23T00:18:53;6.20;;;5.20;;
19161;SDS011;9713;48.140;11.530;2022-09-23T00:22:36;7.30;;;5.20;;
19161;SDS011;9713;48.140;11.530;2022-09-23T00:26:19;7.63;;;5.17;;
19161;SDS011;9713;48.140;11.530;2022-09-23T00:30:03;7.10;;;5.17;;
19161;SDS011;9713;48.140;11.530;2022-09-23T00:33:50;7.13;;;5.30;;
19161;SDS011;9713;48.140;11.530;2022-09-23T00:37:35;6.40;;;5.07;;
19161;SDS011;9713;48.140;11.530;2022-09-23T00:41:21;8.93;;;6.00;;
19161;SDS011;9713;48.140;11.530;2022-09-23T00:45:04;6.77;;;4.80;;
19161;SDS011;9713;48.140;11.530;2022-09-23T00:48:54;7.73;;;5.50;;
19161;SDS011;9713;48.140;11.530;2022-09-23T00:52:39;7.30;;;5.37;;
19161;SDS011;9713;48.140;11.530;2022-09-23T00:56:21;7.10;;;5.10;;
19161;SDS011;9713;48.140;11.530;2022-09-23T01:00:05;6.37;;;5.00;;
19161;SDS011;9713;48.140;11.530;2022-09-23T01:03:49;7.23;;;5.27;;
19161;SDS011;9713;48.140;11.530;2022-09-23T01:07:35;8.40;;;5.40;;
19161;SDS011;9713;48.140;11.530;2022-09-23T01:11:22;8.73;;;5.60;;
19161;SDS011;9713;48.140;11.530;2022-09-23T01:15:11;6.90;;;5.17;;
19161;SDS011;9713;48.140;11.530;2022-09-23T01:18:58;7.00;;;5.40;;
19161;SDS011;9713;48.140;11.530;2022-09-23T01:22:50;6.47;;;5.23;;
19161;SDS011;9713;48.140;11.530;2022-09-23T01:26:43;8.43;;;5.53;;
19161;SDS011;9713;48.140;11.530;2022-09-23T01:30:47;7.73;;;5.37;;
19161;SDS011;9713;48.140;11.530;2022-09-23T01:34:32;6.97;;;5.30;;
19161;SDS011;9713;48.140;11.530;2022-09-23T01:38:20;9.13;;;5.30;;
19161;SDS011;9713;48.140;11.530;2022-09-23T01:42:11;8.63;;;5.47;;
19161;SDS011;9713;48.140;11.530;2022-09-23T01:46:05;7.83;;;5.43;;
19161;SDS011;9713;48.140;11.530;2022-09-23T01:49:50;6.80;;;4.73;;
19161;SDS011;9713;48.140;11.530;2022-09-23T01:53:36;6.93;;;5.50;;
19161;SDS011;9713;48.140;11.530;2022-09-23T01:57:22;7.43;;;5.77;;
19161;SDS011;9713;48.140;11.530;2022-09-23T02:01:08;8.10;;;5.73;;
19161;SDS011;9713;48.140;11.530;2022-09-23T02:04:55;7.07;;;5.37;;
19161;SDS011;9713;48.140;11.530;2022-09-23T02:08:41;8.63;;;5.63;;
19161;SDS011;9713;48.140;11.530;2022-09-23T02:12:25;8.60;;;5.77;;
19161;SDS011;9713;48.140;11.530;2022-09-23T02:16:12;10.00;;;5.70;;
19161;SDS011;9713;48.140;11.530;2022-09-23T02:20:00;7.83;;;5.47;;
19161;SDS011;9713;48.140;11.530;2022-09-23T02:23:47;9.00;;;5.50;;
19161;SDS011;9713;48.140;11.530;2022-09-23T02:27:34;8.40;;;6.50;;
19161;SDS011;9713;48.140;11.530;2022-09-23T02:31:25;8.97;;;6.13;;
19161;SDS011;9713;48.140;11.530;2022-09-23T02:35:13;8.23;;;5.93;;
19161;SDS011;9713;48.140;11.530;2022-09-23T02:39:00;7.00;;;5.60;;
19161;SDS011;9713;48.140;11.530;2022-09-23T02:42:46;7.63;;;5.93;;
19161;SDS011;9713;48.140;11.530;2022-09-23T02:46:35;8.33;;;5.20;;
19161;SDS011;9713;48.140;11.530;2022-09-23T02:50:18;10.13;;;5.50;;
19161;SDS011;9713;48.140;11.530;2022-09-23T02:54:03;6.50;;;5.17;;
19161;SDS011;9713;48.140;11.530;2022-09-23T02:57:47;7.93;;;5.10;;
19161;SDS011;9713;48.140;11.530;2022-09-23T03:01:33;6.87;;;5.60;;
19161;SDS011;9713;48.140;11.530;2022-09-23T03:05:20;6.83;;;5.43;;
19161;SDS011;9713;48.140;11.530;2022-09-23T03:09:06;7.07;;;5.20;;
19161;SDS011;9713;48.140;11.530;2022-09-23T03:12:54;7.07;;;5.03;;
19161;SDS011;9713;48.140;11.530;2022-09-23T03:16:46;9.10;;;5.00;;
19161;SDS011;9713;48.140;11.530;2022-09-23T03:20:37;7.17;;;4.73;;
19161;SDS011;9713;48.140;11.530;2022-09-23T03:24:24;7.13;;;4.90;;
19161;SDS011;9713;48.140;11.530;2022-09-23T03:28:07;7.07;;;4.77;;
19161;SDS011;9713;48.140;11.530;2022-09-23T03:31:52;7.53;;;4.70;;
19161;SDS011;9713;48.140;11.530;2022-09-23T03:35:40;7.43;;;4.50;;
19161;SDS011;9713;48.140;11.530;2022-09-23T03:39:40;6.33;;;4.53;;
19161;SDS011;9713;48.140;11.530;2022-09-23T03:43:24;5.50;;;4.27;;
19161;SDS011;9713;48.140;11.530;2022-09-23T03:47:09;5.90;;;4.07;;
19161;SDS011;9713;48.140;11.530;2022-09-23T03:50:52;7.03;;;4.53;;
19161;SDS011;9713;48.140;11.530;2022-09-23T03:54:37;7.20;;;4.67;;
19161;SDS011;9713;48.140;11.530;2022-09-23T03:58:20;5.80;;;4.57;;
19161;SDS011;9713;48.140;11.530;2022-09-23T04:02:04;6.77;;;4.93;;
19161;SDS011;9713;48.140;11.530;2022-09-23T04:05:49;7.10;;;4.97;;
19161;SDS011;9713;48.140;11.530;2022-09-23T04:09:32;8.40;;;5.13;;
19161;SDS011;9713;48.140;11.530;2022-09-23T04:13:15;5.97;;;4.73;;
19161;SDS011;9713;48.140;11.530;2022-09-23T04:16:58;6.67;;;4.37;;
19161;SDS011;9713;48.140;11.530;2022-09-23T04:20:40;6.63;;;5.20;;
19161;SDS011;9713;48.140;11.530;2022-09-23T04:24:24;6.90;;;5.17;;
19161;SDS011;9713;48.140;11.530;2022-09-23T04:28:07;7.40;;;4.70;;
19161;SDS011;9713;48.140;11.530;2022-09-23T04:31:50;7.07;;;4.40;;
19161;SDS011;9713;48.140;11.530;2022-09-23T04:35:33;7.37;;;4.40;;
19161;SDS011;9713;48.140;11.530;2022-09-23T04:39:20;11.70;;;5.97;;
19161;SDS011;9713;48.140;11.530;2022-09-23T04:43:04;9.33;;;5.80;;
19161;SDS011;9713;48.140;11.530;2022-09-23T04:46:53;8.43;;;5.13;;
19161;SDS011;9713;48.140;11.530;2022-09-23T04:50:36;7.93;;;4.70;;
19161;SDS011;9713;48.140;11.530;2022-09-23T04:54:19;6.63;;;4.67;;
19161;SDS011;9713;48.140;11.530;2022-09-23T04:58:02;7.57;;;5.03;;
19161;SDS011;9713;48.140;11.530;2022-09-23T05:01:46;7.40;;;4.70;;
19161;SDS011;9713;48.140;11.530;2022-09-23T05:05:32;7.57;;;4.87;;
19161;SDS011;9713;48.140;11.530;2022-09-23T05:09:15;6.87;;;5.00;;
19161;SDS011;9713;48.140;11.530;2022-09-23T05:12:59;9.53;;;6.33;;
19161;SDS011;9713;48.140;11.530;2022-09-23T05:16:42;8.97;;;6.40;;
19161;SDS011;9713;48.140;11.530;2022-09-23T05:20:26;17.53;;;7.67;;
19161;SDS011;9713;48.140;11.530;2022-09-23T05:24:10;8.40;;;4.70;;
19161;SDS011;9713;48.140;11.530;2022-09-23T05:27:53;10.90;;;5.60;;
19161;SDS011;9713;48.140;11.530;2022-09-23T05:31:36;17.33;;;6.07;;
19161;SDS011;9713;48.140;11.530;2022-09-23T05:35:19;11.33;;;5.77;;
19161;SDS011;9713;48.140;11.530;2022-09-23T05:39:03;19.40;;;6.70;;
19161;SDS011;9713;48.140;11.530;2022-09-23T05:42:47;9.73;;;5.33;;
19161;SDS011;9713;48.140;11.530;2022-09-23T05:46:31;16.23;;;5.97;;
19161;SDS011;9713;48.140;11.530;2022-09-23T05:50:14;19.63;;;5.80;;
19161;SDS011;9713;48.140;11.530;2022-09-23T05:53:57;21.20;;;5.77;;
19161;SDS011;9713;48.140;11.530;2022-09-23T05:57:46;29.10;;;5.73;;
19161;SDS011;9713;48.140;11.530;2022-09-23T06:01:29;17.70;;;5.23;;
19161;SDS011;9713;48.140;11.530;2022-09-23T06:05:14;15.17;;;5.13;;
19161;SDS011;9713;48.140;11.530;2022-09-23T06:08:57;23.53;;;5.10;;
19161;SDS011;9713;48.140;11.530;2022-09-23T06:12:40;11.50;;;5.00;;
19161;SDS011;9713;48.140;11.530;2022-09-23T06:16:29;10.40;;;4.33;;
19161;SDS011;9713;48.140;11.530;2022-09-23T06:20:13;13.17;;;4.40;;
19161;SDS011;9713;48.140;11.530;2022-09-23T06:23:59;10.60;;;6.47;;
19161;SDS011;9713;48.140;11.530;2022-09-23T06:27:43;9.83;;;5.63;;
19161;SDS011;9713;48.140;11.530;2022-09-23T06:31:25;9.37;;;5.13;;
19161;SDS011;9713;48.140;11.530;2022-09-23T06:35:10;12.83;;;5.40;;
19161;SDS011;9713;48.140;11.530;2022-09-23T06:39:07;6.37;;;4.33;;
19161;SDS011;9713;48.140;11.530;2022-09-23T06:42:55;8.67;;;5.03;;
19161;SDS011;9713;48.140;11.530;2022-09-23T06:46:38;6.97;;;4.33;;
19161;SDS011;9713;48.140;11.530;2022-09-23T06:50:23;4.70;;;3.80;;
19161;SDS011;9713;48.140;11.530;2022-09-23T06:54:07;7.80;;;3.83;;
19161;SDS011;9713;48.140;11.530;2022-09-23T06:57:51;5.83;;;4.20;;
19161;SDS011;9713;48.140;11.530;2022-09-23T07:01:34;7.10;;;3.90;;
19161;SDS011;9713;48.140;11.530;2022-09-23T07:05:17;7.03;;;3.73;;
19161;SDS011;9713;48.140;11.530;2022-09-23T07:09:01;6.10;;;3.83;;
19161;SDS011;9713;48.140;11.530;2022-09-23T07:12:46;7.23;;;3.57;;
19161;SDS011;9713;48.140;11.530;2022-09-23T07:16:28;4.63;;;3.50;;
19161;SDS011;9713;48.140;11.530;2022-09-23T07:20:11;5.70;;;3.90;;
19161;SDS011;9713;48.140;11.530;2022-09-23T07:23:54;5.17;;;3.30;;
19161;SDS011;9713;48.140;11.530;2022-09-23T07:27:39;4.13;;;3.20;;
19161;SDS011;9713;48.140;11.530;2022-09-23T07:31:22;4.83;;;3.20;;
19161;SDS011;9713;48.140;11.530;2022-09-23T07:35:19;4.17;;;3.10;;
19161;SDS011;9713;48.140;11.530;2022-09-23T07:39:02;5.07;;;3.20;;
19161;SDS011;9713;48.140;11.530;2022-09-23T07:42:46;4.00;;;3.00;;
19161;SDS011;9713;48.140;11.530;2022-09-23T07:46:30;4.43;;;2.87;;
19161;SDS011;9713;48.140;11.530;2022-09-23T07:50:14;5.13;;;3.10;;
19161;SDS011;9713;48.140;11.530;2022-09-23T07:53:57;3.60;;;2.87;;
19161;SDS011;9713;48.140;11.530;2022-09-23T07:57:40;3.20;;;2.40;;
19161;SDS011;9713;48.140;11.530;2022-09-23T08:01:24;3.83;;;2.13;;
19161;SDS011;9713;48.140;11.530;2022-09-23T08:05:08;3.30;;;2.40;;
19161;SDS011;9713;48.140;11.530;2022-09-23T08:08:51;3.13;;;2.33;;
19161;SDS011;9713;48.140;11.530;2022-09-23T08:12:34;3.47;;;2.33;;
19161;SDS011;9713;48.140;11.530;2022-09-23T08:16:17;3.67;;;2.60;;
19161;SDS011;9713;48.140;11.530;2022-09-23T08:20:01;3.63;;;2.30;;
19161;SDS011;9713;48.140;11.530;2022-09-23T08:23:44;3.70;;;2.20;;
19161;SDS011;9713;48.140;11.530;2022-09-23T08:27:27;2.83;;;2.00;;
19161;SDS011;9713;48.140;11.530;2022-09-23T08:31:10;5.60;;;2.20;;
19161;SDS011;9713;48.140;11.530;2022-09-23T08:34:53;3.47;;;2.23;;
19161;SDS011;9713;48.140;11.530;2022-09-23T08:38:38;7.57;;;2.30;;
19161;SDS011;9713;48.140;11.530;2022-09-23T08:42:22;4.67;;;2.10;;
19161;SDS011;9713;48.140;11.530;2022-09-23T08:46:09;3.67;;;2.20;;
19161;SDS011;9713;48.140;11.530;2022-09-23T08:49:56;2.27;;;1.90;;
19161;SDS011;9713;48.140;11.530;2022-09-23T08:53:45;4.60;;;2.23;;
19161;SDS011;9713;48.140;11.530;2022-09-23T08:57:34;3.50;;;2.10;;
19161;SDS011;9713;48.140;11.530;2022-09-23T09:01:21;3.00;;;2.00;;
19161;SDS011;9713;48.140;11.530;2022-09-23T09:05:07;3.50;;;2.10;;
19161;SDS011;9713;48.140;11.530;2022-09-23T09:08:53;4.53;;;2.33;;
19161;SDS011;9713;48.140;11.530;2022-09-23T09:12:40;4.40;;;2.20;;
19161;SDS011;9713;48.140;11.530;2022-09-23T09:16:27;6.00;;;2.50;;
19161;SDS011;9713;48.140;11.530;2022-09-23T09:20:41;4.00;;;3.03;;
19161;SDS011;9713;48.140;11.530;2022-09-23T09:24:29;4.80;;;3.10;;
19161;SDS011;9713;48.140;11.530;2022-09-23T09:28:14;7.63;;;3.60;;
19161;SDS011;9713;48.140;11.530;2022-09-23T09:32:00;3.73;;;3.33;;
19161;SDS011;9713;48.140;11.530;2022-09-23T09:36:09;6.77;;;3.60;;
19161;SDS011;9713;48.140;11.530;2022-09-23T09:39:58;5.43;;;4.10;;
19161;SDS011;9713;48.140;11.530;2022-09-23T09:43:42;6.70;;;4.43;;
19161;SDS011;9713;48.140;11.530;2022-09-23T09:47:33;4.13;;;3.40;;
19161;SDS011;9713;48.140;11.530;2022-09-23T09:51:19;5.70;;;3.40;;
19161;SDS011;9713;48.140;11.530;2022-09-23T09:55:22;5.07;;;3.40;;
19161;SDS011;9713;48.140;11.530;2022-09-23T09:59:07;5.83;;;3.60;;
19161;SDS011;9713;48.140;11.530;2022-09-23T10:02:52;8.13;;;3.07;;
19161;SDS011;9713;48.140;11.530;2022-09-23T10:06:36;6.43;;;3.70;;
19161;SDS011;9713;48.140;11.530;2022-09-23T10:10:20;5.40;;;3.20;;
19161;SDS011;9713;48.140;11.530;2022-09-23T10:14:14;4.30;;;3.20;;
19161;SDS011;9713;48.140;11.530;2022-09-23T10:17:59;7.90;;;5.07;;
19161;SDS011;9713;48.140;11.530;2022-09-23T10:21:42;5.37;;;3.20;;
19161;SDS011;9713;48.140;11.530;2022-09-23T10:25:26;5.30;;;3.30;;
19161;SDS011;9713;48.140;11.530;2022-09-23T10:29:18;5.53;;;3.10;;
19161;SDS011;9713;48.140;11.530;2022-09-23T10:33:08;3.73;;;2.80;;
19161;SDS011;9713;48.140;11.530;2022-09-23T10:37:08;3.20;;;2.57;;
19161;SDS011;9713;48.140;11.530;2022-09-23T10:40:58;5.03;;;2.90;;
19161;SDS011;9713;48.140;11.530;2022-09-23T10:45:00;3.73;;;2.93;;
19161;SDS011;9713;48.140;11.530;2022-09-23T10:49:25;4.90;;;3.13;;
19161;SDS011;9713;48.140;11.530;2022-09-23T10:53:28;4.00;;;2.90;;
19161;SDS011;9713;48.140;11.530;2022-09-23T10:57:19;5.57;;;2.67;;
19161;SDS011;9713;48.140;11.530;2022-09-23T11:01:25;6.50;;;3.07;;
19161;SDS011;9713;48.140;11.530;2022-09-23T11:05:16;5.20;;;3.30;;
19161;SDS011;9713;48.140;11.530;2022-09-23T11:09:05;3.60;;;2.77;;
19161;SDS011;9713;48.140;11.530;2022-09-23T11:12:56;3.30;;;2.40;;
19161;SDS011;9713;48.140;11.530;2022-09-23T11:16:50;6.00;;;2.70;;
19161;SDS011;9713;48.140;11.530;2022-09-23T11:20:43;6.10;;;3.37;;
19161;SDS011;9713;48.140;11.530;2022-09-23T11:24:33;5.43;;;2.70;;
19161;SDS011;9713;48.140;11.530;2022-09-23T11:32:41;5.17;;;3.10;;
19161;SDS011;9713;48.140;11.530;2022-09-23T11:36:47;7.47;;;2.97;;
19161;SDS011;9713;48.140;11.530;2022-09-23T11:40:34;5.77;;;3.03;;
19161;SDS011;9713;48.140;11.530;2022-09-23T11:44:26;3.83;;;3.20;;
19161;SDS011;9713;48.140;11.530;2022-09-23T11:48:11;5.33;;;3.10;;
19161;SDS011;9713;48.140;11.530;2022-09-23T11:52:01;5.80;;;2.73;;
19161;SDS011;9713;48.140;11.530;2022-09-23T11:55:47;5.10;;;2.90;;
19161;SDS011;9713;48.140;11.530;2022-09-23T11:59:41;4.63;;;2.77;;
19161;SDS011;9713;48.140;11.530;2022-09-23T12:03:34;5.17;;;3.17;;
19161;SDS011;9713;48.140;11.530;2022-09-23T12:07:26;7.23;;;3.40;;
19161;SDS011;9713;48.140;11.530;2022-09-23T12:11:18;6.40;;;3.57;;
19161;SDS011;9713;48.140;11.530;2022-09-23T12:15:11;5.13;;;3.10;;
19161;SDS011;9713;48.140;11.530;2022-09-23T12:19:01;6.33;;;3.50;;
19161;SDS011;9713;48.140;11.530;2022-09-23T12:22:51;4.83;;;3.50;;
19161;SDS011;9713;48.140;11.530;2022-09-23T12:26:38;3.73;;;3.10;;
19161;SDS011;9713;48.140;11.530;2022-09-23T12:30:25;4.47;;;3.67;;
19161;SDS011;9713;48.140;11.530;2022-09-23T12:34:17;8.23;;;3.10;;
19161;SDS011;9713;48.140;11.530;2022-09-23T12:38:06;4.80;;;3.87;;
19161;SDS011;9713;48.140;11.530;2022-09-23T12:41:57;6.47;;;3.67;;
19161;SDS011;9713;48.140;11.530;2022-09-23T12:45:43;4.90;;;3.20;;
19161;SDS011;9713;48.140;11.530;2022-09-23T12:49:34;4.83;;;3.70;;
19161;SDS011;9713;48.140;11.530;2022-09-23T12:53:48;7.10;;;3.13;;
19161;SDS011;9713;48.140;11.530;2022-09-23T12:57:40;11.10;;;3.73;;
19161;SDS011;9713;48.140;11.530;2022-09-23T13:01:25;7.00;;;4.10;;
19161;SDS011;9713;48.140;11.530;2022-09-23T13:05:15;7.77;;;3.90;;
19161;SDS011;9713;48.140;11.530;2022-09-23T13:09:19;6.30;;;4.77;;
19161;SDS011;9713;48.140;11.530;2022-09-23T13:13:05;5.60;;;3.83;;
19161;SDS011;9713;48.140;11.530;2022-09-23T13:16:49;5.57;;;3.00;;
19161;SDS011;9713;48.140;11.530;2022-09-23T13:20:36;4.72;;;3.22;;
19161;SDS011;9713;48.140;11.530;2022-09-23T13:24:33;8.23;;;3.22;;
19161;SDS011;9713;48.140;11.530;2022-09-23T13:28:24;5.93;;;3.80;;
19161;SDS011;9713;48.140;11.530;2022-09-23T13:32:13;5.55;;;3.70;;
19161;SDS011;9713;48.140;11.530;2022-09-23T13:35:59;4.27;;;3.40;;
19161;SDS011;9713;48.140;11.530;2022-09-23T13:39:44;6.57;;;3.90;;
19161;SDS011;9713;48.140;11.530;2022-09-23T13:43:28;6.53;;;3.83;;
19161;SDS011;9713;48.140;11.530;2022-09-23T13:47:17;4.40;;;3.45;;
19161;SDS011;9713;48.140;11.530;2022-09-23T13:51:03;5.13;;;3.50;;
19161;SDS011;9713;48.140;11.530;2022-09-23T13:54:50;8.00;;;3.53;;
19161;SDS011;9713;48.140;11.530;2022-09-23T13:58:33;5.10;;;3.27;;
19161;SDS011;9713;48.140;11.530;2022-09-23T14:02:18;4.82;;;3.60;;
19161;SDS011;9713;48.140;11.530;2022-09-23T14:06:08;6.18;;;3.92;;
19161;SDS011;9713;48.140;11.530;2022-09-23T14:09:53;5.15;;;2.80;;
19161;SDS011;9713;48.140;11.530;2022-09-23T14:13:39;9.88;;;3.90;;
19161;SDS011;9713;48.140;11.530;2022-09-23T14:17:25;9.30;;;3.70;;
19161;SDS011;9713;48.140;11.530;2022-09-23T14:25:11;5.88;;;3.30;;
19161;SDS011;9713;48.140;11.530;2022-09-23T14:28:54;7.22;;;3.42;;
19161;SDS011;9713;48.140;11.530;2022-09-23T14:32:39;4.45;;;3.20;;
19161;SDS011;9713;48.140;11.530;2022-09-23T14:36:22;4.97;;;3.30;;
19161;SDS011;9713;48.140;11.530;2022-09-23T14:40:23;5.82;;;2.83;;
19161;SDS011;9713;48.140;11.530;2022-09-23T14:44:13;9.00;;;3.80;;
19161;SDS011;9713;48.140;11.530;2022-09-23T14:48:05;8.80;;;3.70;;
19161;SDS011;9713;48.140;11.530;2022-09-23T14:51:52;5.60;;;2.60;;
19161;SDS011;9713;48.140;11.530;2022-09-23T14:55:36;5.03;;;2.17;;
19161;SDS011;9713;48.140;11.530;2022-09-23T14:59:22;3.72;;;2.75;;
19161;SDS011;9713;48.140;11.530;2022-09-23T15:03:12;6.65;;;2.70;;
19161;SDS011;9713;48.140;11.530;2022-09-23T15:06:58;4.13;;;1.90;;
19161;SDS011;9713;48.140;11.530;2022-09-23T15:10:43;5.70;;;2.20;;
19161;SDS011;9713;48.140;11.530;2022-09-23T15:14:28;3.30;;;2.15;;
19161;SDS011;9713;48.140;11.530;2022-09-23T15:18:23;2.67;;;2.10;;
19161;SDS011;9713;48.140;11.530;2022-09-23T15:22:07;3.92;;;2.33;;
19161;SDS011;9713;48.140;11.530;2022-09-23T15:25:53;3.97;;;2.22;;
19161;SDS011;9713;48.140;11.530;2022-09-23T15:29:36;8.65;;;2.30;;
19161;SDS011;9713;48.140;11.530;2022-09-23T15:33:19;4.57;;;2.33;;
19161;SDS011;9713;48.140;11.530;2022-09-23T15:37:09;4.50;;;2.20;;
19161;SDS011;9713;48.140;11.530;2022-09-23T15:40:52;4.93;;;2.60;;
19161;SDS011;9713;48.140;11.530;2022-09-23T15:44:35;5.20;;;2.70;;
19161;SDS011;9713;48.140;11.530;2022-09-23T15:48:18;5.00;;;3.35;;
19161;SDS011;9713;48.140;11.530;2022-09-23T15:52:03;3.53;;;2.58;;
19161;SDS011;9713;48.140;11.530;2022-09-23T15:55:52;3.58;;;2.50;;
19161;SDS011;9713;48.140;11.530;2022-09-23T15:59:35;4.38;;;2.60;;
19161;SDS011;9713;48.140;11.530;2022-09-23T16:03:18;6.10;;;3.03;;
19161;SDS011;9713;48.140;11.530;2022-09-23T16:07:03;6.18;;;4.40;;
19161;SDS011;9713;48.140;11.530;2022-09-23T16:10:47;5.35;;;3.42;;
19161;SDS011;9713;48.140;11.530;2022-09-23T16:14:30;5.18;;;2.38;;
19161;SDS011;9713;48.140;11.530;2022-09-23T16:18:13;6.55;;;3.88;;
19161;SDS011;9713;48.140;11.530;2022-09-23T16:21:55;4.10;;;3.05;;
19161;SDS011;9713;48.140;11.530;2022-09-23T16:25:38;4.63;;;2.83;;
19161;SDS011;9713;48.140;11.530;2022-09-23T16:29:25;5.93;;;2.47;;
19161;SDS011;9713;48.140;11.530;2022-09-23T16:33:08;5.20;;;2.75;;
19161;SDS011;9713;48.140;11.530;2022-09-23T16:36:51;5.43;;;3.03;;
19161;SDS011;9713;48.140;11.530;2022-09-23T16:40:34;6.07;;;2.87;;
19161;SDS011;9713;48.140;11.530;2022-09-23T16:44:17;4.28;;;2.85;;
19161;SDS011;9713;48.140;11.530;2022-09-23T16:48:01;6.17;;;3.30;;
19161;SDS011;9713;48.140;11.530;2022-09-23T16:51:44;10.23;;;3.40;;
19161;SDS011;9713;48.140;11.530;2022-09-23T16:55:26;16.55;;;6.78;;
19161;SDS011;9713;48.140;11.530;2022-09-23T16:59:09;7.25;;;4.65;;
19161;SDS011;9713;48.140;11.530;2022-09-23T17:02:52;8.07;;;4.78;;
19161;SDS011;9713;48.140;11.530;2022-09-23T17:06:54;13.50;;;5.90;;
19161;SDS011;9713;48.140;11.530;2022-09-23T17:10:36;13.33;;;4.40;;
19161;SDS011;9713;48.140;11.530;2022-09-23T17:14:19;5.80;;;3.85;;
19161;SDS011;9713;48.140;11.530;2022-09-23T17:18:02;12.40;;;4.27;;
19161;SDS011;9713;48.140;11.530;2022-09-23T17:21:45;11.23;;;4.43;;
19161;SDS011;9713;48.140;11.530;2022-09-23T17:25:29;11.67;;;5.00;;
19161;SDS011;9713;48.140;11.530;2022-09-23T17:29:12;10.67;;;5.37;;
19161;SDS011;9713;48.140;11.530;2022-09-23T17:32:56;60.80;;;19.93;;
19161;SDS011;9713;48.140;11.530;2022-09-23T17:36:38;24.73;;;9.03;;
19161;SDS011;9713;48.140;11.530;2022-09-23T17:40:21;28.67;;;11.73;;
19161;SDS011;9713;48.140;11.530;2022-09-23T17:44:09;27.57;;;8.57;;
19161;SDS011;9713;48.140;11.530;2022-09-23T17:47:52;14.57;;;6.03;;
19161;SDS011;9713;48.140;11.530;2022-09-23T17:51:35;18.70;;;8.00;;
19161;SDS011;9713;48.140;11.530;2022-09-23T17:55:17;10.93;;;5.93;;
19161;SDS011;9713;48.140;11.530;2022-09-23T17:59:00;13.43;;;5.97;;
19161;SDS011;9713;48.140;11.530;2022-09-23T18:02:48;12.27;;;5.77;;
19161;SDS011;9713;48.140;11.530;2022-09-23T18:06:32;10.57;;;6.40;;
19161;SDS011;9713;48.140;11.530;2022-09-23T18:10:16;10.07;;;6.00;;
19161;SDS011;9713;48.140;11.530;2022-09-23T18:14:00;9.47;;;6.20;;
19161;SDS011;9713;48.140;11.530;2022-09-23T18:17:45;14.50;;;8.50;;
19161;SDS011;9713;48.140;11.530;2022-09-23T18:21:28;10.23;;;7.33;;
19161;SDS011;9713;48.140;11.530;2022-09-23T18:25:12;21.43;;;12.50;;
19161;SDS011;9713;48.140;11.530;2022-09-23T18:29:15;10.87;;;6.53;;
19161;SDS011;9713;48.140;11.530;2022-09-23T18:33:01;9.73;;;6.10;;
19161;SDS011;9713;48.140;11.530;2022-09-23T18:36:44;24.63;;;15.03;;
19161;SDS011;9713;48.140;11.530;2022-09-23T18:40:27;16.80;;;8.33;;
19161;SDS011;9713;48.140;11.530;2022-09-23T18:44:09;11.50;;;7.23;;
19161;SDS011;9713;48.140;11.530;2022-09-23T18:47:52;11.30;;;6.53;;
19161;SDS011;9713;48.140;11.530;2022-09-23T18:51:55;15.10;;;6.93;;
19161;SDS011;9713;48.140;11.530;2022-09-23T18:55:38;11.40;;;6.53;;
19161;SDS011;9713;48.140;11.530;2022-09-23T18:59:21;15.63;;;8.50;;
19161;SDS011;9713;48.140;11.530;2022-09-23T19:03:07;12.13;;;7.97;;
19161;SDS011;9713;48.140;11.530;2022-09-23T19:06:50;11.07;;;6.27;;
19161;SDS011;9713;48.140;11.530;2022-09-23T19:10:35;11.03;;;7.27;;
19161;SDS011;9713;48.140;11.530;2022-09-23T19:14:18;17.47;;;10.20;;
19161;SDS011;9713;48.140;11.530;2022-09-23T19:18:01;24.23;;;11.83;;
19161;SDS011;9713;48.140;11.530;2022-09-23T19:21:43;14.13;;;7.87;;
19161;SDS011;9713;48.140;11.530;2022-09-23T19:25:26;14.23;;;7.00;;
19161;SDS011;9713;48.140;11.530;2022-09-23T19:29:13;11.67;;;8.20;;
19161;SDS011;9713;48.140;11.530;2022-09-23T19:33:00;11.57;;;7.60;;
19161;SDS011;9713;48.140;11.530;2022-09-23T19:36:44;9.87;;;7.40;;
19161;SDS011;9713;48.140;11.530;2022-09-23T19:40:27;12.60;;;6.93;;
19161;SDS011;9713;48.140;11.530;2022-09-23T19:44:12;13.57;;;7.30;;
19161;SDS011;9713;48.140;11.530;2022-09-23T19:47:55;12.33;;;7.83;;
19161;SDS011;9713;48.140;11.530;2022-09-23T19:51:38;14.50;;;8.17;;
19161;SDS011;9713;48.140;11.530;2022-09-23T19:55:21;15.70;;;10.70;;
19161;SDS011;9713;48.140;11.530;2022-09-23T19:59:04;14.20;;;9.13;;
19161;SDS011;9713;48.140;11.530;2022-09-23T20:02:50;13.73;;;9.20;;
19161;SDS011;9713;48.140;11.530;2022-09-23T20:06:33;14.80;;;8.83;;
19161;SDS011;9713;48.140;11.530;2022-09-23T20:10:18;15.10;;;8.63;;
19161;SDS011;9713;48.140;11.530;2022-09-23T20:14:01;13.33;;;8.33;;
19161;SDS011;9713;48.140;11.530;2022-09-23T20:17:46;16.87;;;10.63;;
19161;SDS011;9713;48.140;11.530;2022-09-23T20:21:30;19.60;;;11.13;;
19161;SDS011;9713;48.140;11.530;2022-09-23T20:25:14;13.73;;;9.77;;
19161;SDS011;9713;48.140;11.530;2022-09-23T20:28:57;16.30;;;11.00;;
19161;SDS011;9713;48.140;11.530;2022-09-23T20:32:41;16.10;;;10.10;;
19161;SDS011;9713;48.140;11.530;2022-09-23T20:36:25;17.30;;;10.87;;
19161;SDS011;9713;48.140;11.530;2022-09-23T20:40:10;15.40;;;10.30;;
19161;SDS011;9713;48.140;11.530;2022-09-23T20:43:53;16.97;;;9.83;;
19161;SDS011;9713;48.140;11.530;2022-09-23T20:47:39;15.43;;;10.60;;
19161;SDS011;9713;48.140;11.530;2022-09-23T20:51:23;19.77;;;10.23;;
19161;SDS011;9713;48.140;11.530;2022-09-23T20:55:07;14.80;;;10.20;;
19161;SDS011;9713;48.140;11.530;2022-09-23T20:58:51;15.10;;;9.73;;
19161;SDS011;9713;48.140;11.530;2022-09-23T21:02:34;12.13;;;9.17;;
19161;SDS011;9713;48.140;11.530;2022-09-23T21:06:17;17.53;;;9.77;;
19161;SDS011;9713;48.140;11.530;2022-09-23T21:10:00;17.23;;;9.70;;
19161;SDS011;9713;48.140;11.530;2022-09-23T21:13:45;16.60;;;9.43;;
19161;SDS011;9713;48.140;11.530;2022-09-23T21:17:31;15.23;;;9.40;;
19161;SDS011;9713;48.140;11.530;2022-09-23T21:21:14;11.80;;;7.90;;
19161;SDS011;9713;48.140;11.530;2022-09-23T21:24:59;13.23;;;8.10;;
19161;SDS011;9713;48.140;11.530;2022-09-23T21:29:02;11.67;;;7.97;;
19161;SDS011;9713;48.140;11.530;2022-09-23T21:32:48;14.03;;;8.20;;
19161;SDS011;9713;48.140;11.530;2022-09-23T21:36:31;12.37;;;8.57;;
19161;SDS011;9713;48.140;11.530;2022-09-23T21:40:17;12.43;;;8.57;;
19161;SDS011;9713;48.140;11.530;2022-09-23T21:44:17;12.03;;;7.70;;
19161;SDS011;9713;48.140;11.530;2022-09-23T21:48:01;10.33;;;7.73;;
19161;SDS011;9713;48.140;11.530;2022-09-23T21:51:45;10.00;;;7.10;;
19161;SDS011;9713;48.140;11.530;2022-09-23T21:55:28;10.60;;;7.17;;
19161;SDS011;9713;48.140;11.530;2022-09-23T21:59:13;11.60;;;7.23;;
19161;SDS011;9713;48.140;11.530;2022-09-23T22:02:58;9.23;;;7.10;;
19161;SDS011;9713;48.140;11.530;2022-09-23T22:06:42;10.23;;;7.07;;
19161;SDS011;9713;48.140;11.530;2022-09-23T22:10:25;12.43;;;7.87;;
19161;SDS011;9713;48.140;11.530;2022-09-23T22:14:12;10.93;;;7.20;;
19161;SDS011;9713;48.140;11.530;2022-09-23T22:17:55;11.57;;;7.13;;
19161;SDS011;9713;48.140;11.530;2022-09-23T22:21:44;15.40;;;7.50;;
19161;SDS011;9713;48.140;11.530;2022-09-23T22:25:27;11.47;;;6.83;;
19161;SDS011;9713;48.140;11.530;2022-09-23T22:29:18;10.17;;;6.20;;
19161;SDS011;9713;48.140;11.530;2022-09-23T22:33:18;10.50;;;6.60;;
19161;SDS011;9713;48.140;11.530;2022-09-23T22:37:03;8.97;;;6.50;;
19161;SDS011;9713;48.140;11.530;2022-09-23T22:40:48;8.63;;;6.43;;
19161;SDS011;9713;48.140;11.530;2022-09-23T22:44:32;10.30;;;6.83;;